Time;durP1;ratioP1;P1;durP2;ratioP2;P2;SDS_P1;SDS_P2;PMS_P1;PMS_P2;Temp;Humidity;BMP_temperature;BMP_pressure;BME280_temperature;BME280_humidity;BME280_pressure;Samples;Min_cycle;Max_cycle;Signal;HPM_P1;HPM_P2
2022/12/26 00:00:34;;;;;;;3.23;1.53;;;12.70;99.90;;;;;;5074107;28;20177;-77
2022/12/26 00:03:00;;;;;;;3.67;1.30;;;12.60;99.90;;;;;;5055915;28;20409;-77
2022/12/26 00:05:25;;;;;;;3.37;1.80;;;12.60;99.90;;;;;;5055417;28;20435;-77
2022/12/26 00:07:51;;;;;;;2.93;1.80;;;12.60;99.90;;;;;;5073406;28;20174;-77
2022/12/26 00:10:16;;;;;;;2.57;1.40;;;12.50;99.90;;;;;;5055712;28;20219;-77
2022/12/26 00:12:42;;;;;;;5.97;2.00;;;12.50;99.90;;;;;;5073496;28;20534;-77
2022/12/26 00:15:08;;;;;;;3.50;1.50;;;12.50;99.90;;;;;;5055666;28;20194;-77
2022/12/26 00:17:33;;;;;;;3.10;2.03;;;12.50;99.90;;;;;;5073862;28;20171;-77
2022/12/26 00:19:59;;;;;;;3.30;2.23;;;12.40;99.90;;;;;;5055943;28;20170;-77
2022/12/26 00:22:24;;;;;;;2.27;1.87;;;12.40;99.90;;;;;;5073388;28;20681;-77
2022/12/26 00:24:50;;;;;;;3.63;2.03;;;12.50;99.90;;;;;;5072835;28;20198;-77
2022/12/26 00:27:15;;;;;;;2.60;1.50;;;12.50;99.90;;;;;;5068681;28;20171;-77
2022/12/26 00:29:41;;;;;;;2.27;1.50;;;12.50;99.90;;;;;;5053302;28;20243;-76
2022/12/26 00:32:06;;;;;;;3.67;2.10;;;12.50;99.90;;;;;;5068581;28;20202;-77
2022/12/26 00:34:32;;;;;;;3.67;1.70;;;12.60;99.90;;;;;;5072983;28;20194;-77
2022/12/26 00:36:57;;;;;;;2.70;1.87;;;12.60;99.90;;;;;;5055191;28;20418;-77
2022/12/26 00:39:23;;;;;;;1.80;1.60;;;12.60;99.90;;;;;;5073574;28;20289;-77
2022/12/26 00:41:48;;;;;;;5.23;2.23;;;12.50;99.90;;;;;;5072461;28;20205;-76
2022/12/26 00:44:14;;;;;;;4.30;2.10;;;12.50;99.90;;;;;;5072381;28;20173;-78
2022/12/26 00:46:40;;;;;;;2.57;1.90;;;12.60;99.90;;;;;;5072408;28;20158;-77
2022/12/26 00:49:05;;;;;;;2.37;1.80;;;12.50;99.90;;;;;;5072402;28;20192;-77
2022/12/26 00:51:31;;;;;;;2.20;1.60;;;12.50;99.90;;;;;;5053256;28;20167;-77
2022/12/26 00:53:56;;;;;;;1.90;1.30;;;12.50;99.90;;;;;;5054298;28;20178;-76
2022/12/26 00:56:22;;;;;;;2.63;1.57;;;12.50;99.90;;;;;;5075635;28;20190;-76
2022/12/26 00:58:47;;;;;;;2.70;1.53;;;12.40;99.90;;;;;;5058120;28;20170;-77
2022/12/26 01:01:19;;;;;;;1.97;1.47;;;12.40;99.90;;;;;;5075921;28;20636;-77
2022/12/26 01:03:48;;;;;;;5.00;1.60;;;12.50;99.90;;;;;;5075962;28;20647;-77
2022/12/26 01:06:15;;;;;;;2.57;1.70;;;12.50;99.90;;;;;;5075293;28;20519;-76
2022/12/26 01:08:40;;;;;;;8.07;2.17;;;12.50;99.90;;;;;;5075788;28;20465;-76
2022/12/26 01:11:09;;;;;;;2.90;1.37;;;12.60;99.90;;;;;;5075785;28;20420;-76
2022/12/26 01:13:35;;;;;;;2.23;1.30;;;12.60;99.90;;;;;;5075642;28;20540;-76
2022/12/26 01:16:01;;;;;;;3.03;1.63;;;12.60;99.90;;;;;;5057529;28;20840;-77
2022/12/26 01:18:27;;;;;;;4.10;1.70;;;12.60;99.90;;;;;;5076785;28;20405;-77
2022/12/26 01:20:58;;;;;;;2.20;1.50;;;12.60;99.90;;;;;;5058653;28;20794;-78
2022/12/26 01:23:25;;;;;;;2.90;1.57;;;12.60;99.90;;;;;;5059261;28;20307;-77
2022/12/26 01:25:51;;;;;;;2.80;1.50;;;12.70;99.90;;;;;;5058769;28;20802;-77
2022/12/26 01:28:17;;;;;;;1.80;1.40;;;12.80;99.90;;;;;;5058575;28;20423;-77
2022/12/26 01:30:42;;;;;;;1.63;1.37;;;12.80;99.90;;;;;;5072406;28;20197;-77
2022/12/26 01:33:08;;;;;;;3.20;1.67;;;12.80;99.90;;;;;;5076153;28;20182;-77
2022/12/26 01:35:33;;;;;;;2.43;1.70;;;12.80;99.90;;;;;;5075866;28;20194;-77
2022/12/26 01:37:59;;;;;;;3.77;1.30;;;12.90;99.90;;;;;;5074485;28;20174;-77
2022/12/26 01:40:25;;;;;;;4.20;2.03;;;12.90;99.90;;;;;;5065108;28;20265;-77
2022/12/26 01:42:50;;;;;;;4.20;1.43;;;12.90;99.90;;;;;;5058281;28;20205;-77
2022/12/26 01:45:29;;;;;;;4.30;3.00;;;13.00;99.90;;;;;;5056617;28;20449;-77
2022/12/26 01:47:58;;;;;;;6.20;2.03;;;13.10;99.90;;;;;;5054857;28;20551;-76
2022/12/26 01:50:57;;;;;;;5.83;1.60;;;13.10;99.90;;;;;;5070760;28;20474;-76
2022/12/26 01:53:31;;;;;;;5.73;1.60;;;13.00;99.90;;;;;;5067165;28;20428;-76
2022/12/26 01:56:05;;;;;;;3.87;1.27;;;13.10;99.90;;;;;;5054079;28;20444;-76
2022/12/26 01:58:36;;;;;;;2.07;1.20;;;13.10;99.90;;;;;;5055649;28;20917;-76
2022/12/26 02:01:05;;;;;;;1.80;1.20;;;13.10;99.90;;;;;;5075566;28;20459;-76
2022/12/26 02:06:16;;;;;;;2.17;1.10;;;13.00;99.90;;;;;;5075243;28;20466;-77
2022/12/26 02:08:45;;;;;;;3.93;1.67;;;13.10;99.90;;;;;;5075676;28;20407;-77
2022/12/26 02:11:20;;;;;;;2.90;1.80;;;13.00;99.90;;;;;;5075812;28;20413;-77
2022/12/26 02:13:46;;;;;;;2.50;1.50;;;13.00;99.90;;;;;;5075637;28;20400;-76
2022/12/26 02:16:14;;;;;;;4.00;1.30;;;13.00;99.90;;;;;;5056962;28;20459;-76
2022/12/26 02:18:40;;;;;;;2.90;1.40;;;13.00;99.90;;;;;;5075461;28;20170;-76
2022/12/26 02:21:42;;;;;;;3.40;1.70;;;13.00;99.90;;;;;;5075364;28;20971;-77
2022/12/26 02:24:26;;;;;;;2.10;1.50;;;13.00;99.90;;;;;;5075461;28;20223;-77
2022/12/26 02:27:04;;;;;;;2.43;1.50;;;13.00;99.90;;;;;;5075684;28;20775;-77
2022/12/26 02:30:07;;;;;;;2.10;1.60;;;13.00;99.90;;;;;;5075199;28;20416;-77
2022/12/26 02:32:32;;;;;;;2.90;1.20;;;13.00;99.90;;;;;;5073915;28;20917;-77
2022/12/26 02:35:18;;;;;;;1.60;1.30;;;12.90;99.90;;;;;;5074976;28;20436;-77
2022/12/26 02:37:53;;;;;;;3.00;1.60;;;12.90;99.90;;;;;;5074873;28;20654;-76
2022/12/26 02:40:27;;;;;;;2.20;1.20;;;12.90;99.90;;;;;;5056173;28;20928;-76
2022/12/26 02:43:00;;;;;;;2.03;1.70;;;12.80;99.90;;;;;;5056007;28;20500;-76
2022/12/26 02:48:42;;;;;;;2.67;2.00;;;12.90;99.90;;;;;;5075174;28;20395;-77
2022/12/26 03:15:04;;;;;;;2.93;1.87;;;12.90;99.90;;;;;;5073588;28;20465;-77
2022/12/26 03:17:41;;;;;;;5.73;1.20;;;12.80;99.90;;;;;;5074514;28;20408;-77
2022/12/26 03:20:09;;;;;;;5.60;1.87;;;12.80;99.90;;;;;;5057037;28;20415;-78
2022/12/26 03:22:55;;;;;;;3.20;1.40;;;12.80;99.90;;;;;;5074600;28;20559;-77
2022/12/26 03:28:36;;;;;;;2.83;1.30;;;12.80;99.90;;;;;;5074720;28;20395;-77
2022/12/26 03:31:06;;;;;;;3.27;1.90;;;12.70;99.90;;;;;;5054262;28;20436;-77
2022/12/26 03:36:53;;;;;;;2.60;1.60;;;12.80;99.90;;;;;;5066229;28;20424;-77
2022/12/26 04:19:53;;;;;;;1.63;1.10;;;12.80;99.90;;;;;;5072901;28;20396;-77
2022/12/26 04:45:25;;;;;;;1.57;1.00;;;12.70;99.90;;;;;;5061235;28;20450;-78
2022/12/26 04:50:35;;;;;;;2.83;1.33;;;12.60;99.90;;;;;;5075928;28;20495;-77
2022/12/26 04:53:01;;;;;;;1.50;1.17;;;12.60;99.90;;;;;;5075926;28;20901;-77
2022/12/26 04:55:28;;;;;;;3.10;1.53;;;12.50;99.90;;;;;;5072954;28;20243;-77
2022/12/26 04:57:55;;;;;;;1.60;1.20;;;12.50;99.90;;;;;;5054841;28;20174;-77
2022/12/26 05:00:23;;;;;;;2.13;1.40;;;12.40;99.90;;;;;;5072241;28;20405;-77
2022/12/26 05:11:33;;;;;;;2.70;1.40;;;12.10;99.90;;;;;;5070883;28;20446;-77
2022/12/26 05:13:59;;;;;;;2.50;1.60;;;12.00;99.90;;;;;;5076222;28;20419;-77
2022/12/26 05:30:22;;;;;;;1.50;1.20;;;11.90;99.90;;;;;;5076122;28;20817;-76
2022/12/26 05:35:33;;;;;;;2.43;2.17;;;11.80;99.90;;;;;;5070462;28;20255;-76
2022/12/26 05:37:58;;;;;;;2.93;1.10;;;11.70;99.90;;;;;;5076024;28;20418;-77
2022/12/26 05:40:24;;;;;;;1.77;1.30;;;11.60;99.90;;;;;;5079353;28;20495;-76
2022/12/26 05:42:51;;;;;;;1.73;0.97;;;11.50;99.90;;;;;;5064719;28;20697;-76
2022/12/26 05:45:16;;;;;;;1.93;1.00;;;11.50;99.90;;;;;;5070061;28;20210;-77
2022/12/26 05:47:42;;;;;;;2.03;1.10;;;11.40;99.90;;;;;;5070064;28;20420;-76
2022/12/26 05:50:08;;;;;;;2.20;1.10;;;11.50;99.90;;;;;;5068017;28;20211;-76
2022/12/26 05:52:33;;;;;;;1.60;1.00;;;11.40;99.90;;;;;;5077194;28;20174;-77
2022/12/26 05:54:59;;;;;;;2.13;0.93;;;11.40;99.90;;;;;;5076356;28;20198;-77
2022/12/26 05:57:24;;;;;;;2.43;1.00;;;11.30;99.90;;;;;;5058593;28;20182;-76
2022/12/26 05:59:50;;;;;;;1.30;0.83;;;11.20;99.90;;;;;;5076465;28;20535;-77
2022/12/26 06:02:15;;;;;;;3.10;0.77;;;11.20;99.90;;;;;;5076094;28;20197;-76
2022/12/26 06:04:41;;;;;;;1.30;0.80;;;11.30;99.90;;;;;;5057811;28;20189;-76
2022/12/26 06:07:06;;;;;;;1.57;1.10;;;11.20;99.90;;;;;;5076442;28;20209;-76
2022/12/26 06:09:32;;;;;;;1.27;0.83;;;11.10;99.90;;;;;;5076262;28;20619;-76
2022/12/26 06:11:58;;;;;;;2.47;0.83;;;11.10;99.90;;;;;;5076457;28;20336;-77
2022/12/26 06:14:23;;;;;;;1.23;0.90;;;11.10;99.90;;;;;;5058114;28;20181;-76
2022/12/26 06:16:49;;;;;;;2.80;1.07;;;11.20;99.90;;;;;;5056388;28;20213;-76
2022/12/26 06:19:14;;;;;;;3.30;1.07;;;11.20;99.90;;;;;;5075870;28;20170;-76
2022/12/26 06:21:40;;;;;;;1.30;0.80;;;11.20;99.90;;;;;;5075853;28;20612;-76
2022/12/26 06:24:05;;;;;;;2.50;2.10;;;11.20;99.90;;;;;;5058062;28;20173;-76
2022/12/26 06:26:31;;;;;;;2.97;1.10;;;11.00;99.90;;;;;;5075541;28;20255;-76
2022/12/26 06:28:56;;;;;;;1.57;0.80;;;11.10;99.90;;;;;;5070342;28;20188;-76
2022/12/26 06:31:23;;;;;;;1.50;0.97;;;11.00;99.90;;;;;;5074353;28;20542;-76
2022/12/26 06:33:50;;;;;;;1.20;0.60;;;11.10;99.90;;;;;;5075438;28;20178;-76
2022/12/26 06:36:19;;;;;;;1.20;0.77;;;11.00;99.90;;;;;;5064651;28;20954;-76
2022/12/26 06:38:45;;;;;;;1.40;0.87;;;11.10;99.90;;;;;;5057114;28;20805;-76
2022/12/26 06:41:14;;;;;;;1.73;1.10;;;11.00;99.90;;;;;;5075216;28;20459;-76
2022/12/26 06:43:40;;;;;;;1.97;0.80;;;11.00;99.90;;;;;;5057007;28;20420;-76
2022/12/26 06:46:06;;;;;;;1.30;0.83;;;10.90;99.90;;;;;;5056912;28;20432;-77
2022/12/26 06:48:38;;;;;;;1.20;0.87;;;10.90;99.90;;;;;;5072033;28;20420;-76
2022/12/26 06:51:04;;;;;;;1.57;0.87;;;10.90;99.90;;;;;;5072311;28;20417;-76
2022/12/26 06:53:30;;;;;;;1.60;0.80;;;10.90;99.90;;;;;;5074827;28;20411;-76
2022/12/26 06:56:11;;;;;;;1.60;0.97;;;10.90;99.90;;;;;;5074828;28;20426;-76
2022/12/26 06:58:38;;;;;;;1.27;0.97;;;10.90;99.90;;;;;;5057283;28;20558;-77
2022/12/26 07:01:08;;;;;;;1.80;1.00;;;10.90;99.90;;;;;;5074730;28;20420;-76
2022/12/26 07:03:34;;;;;;;1.23;0.80;;;10.90;99.90;;;;;;5074685;28;20412;-76
2022/12/26 07:06:10;;;;;;;1.37;1.13;;;10.80;99.90;;;;;;5055952;28;20805;-76
2022/12/26 07:08:36;;;;;;;1.47;0.90;;;10.90;99.90;;;;;;5074192;28;20682;-76
2022/12/26 07:11:01;;;;;;;1.40;0.80;;;10.80;99.90;;;;;;5074147;28;20440;-75
2022/12/26 07:13:27;;;;;;;1.60;1.00;;;10.90;99.90;;;;;;5074323;28;20173;-76
2022/12/26 07:15:52;;;;;;;1.67;0.80;;;10.90;99.90;;;;;;5073500;28;20190;-75
2022/12/26 07:18:18;;;;;;;2.00;0.87;;;11.00;99.90;;;;;;5056080;28;20240;-76
2022/12/26 07:20:44;;;;;;;2.13;1.20;;;11.00;99.90;;;;;;5056571;28;20176;-77
2022/12/26 07:23:09;;;;;;;1.50;0.97;;;11.10;99.90;;;;;;5073934;28;20206;-77
2022/12/26 07:25:36;;;;;;;1.40;0.70;;;11.10;99.90;;;;;;5055707;28;20647;-75
2022/12/26 07:28:02;;;;;;;4.50;1.10;;;11.10;99.90;;;;;;5058736;28;20171;-77
2022/12/26 07:30:28;;;;;;;1.20;0.70;;;11.00;99.90;;;;;;5054049;28;20432;-77
2022/12/26 07:32:53;;;;;;;1.40;0.73;;;11.10;99.90;;;;;;5054399;28;20193;-77
2022/12/26 07:35:19;;;;;;;1.70;0.97;;;11.10;99.90;;;;;;5055903;28;20252;-77
2022/12/26 07:37:44;;;;;;;4.60;1.13;;;11.10;99.90;;;;;;5056090;28;20581;-77
2022/12/26 07:40:10;;;;;;;1.10;0.77;;;11.10;99.90;;;;;;5074317;28;20186;-77
2022/12/26 07:42:36;;;;;;;1.10;0.70;;;11.00;99.90;;;;;;5074067;28;20534;-77
2022/12/26 07:45:02;;;;;;;1.30;0.90;;;11.00;99.90;;;;;;5056133;28;20421;-77
2022/12/26 07:47:28;;;;;;;1.40;0.80;;;11.00;99.90;;;;;;5073880;28;20170;-77
2022/12/26 07:49:53;;;;;;;21.40;13.60;;;10.90;99.90;;;;;;5074082;28;20404;-77
2022/12/26 07:52:19;;;;;;;2.10;1.40;;;10.90;99.90;;;;;;5056123;28;20174;-77
2022/12/26 07:54:44;;;;;;;1.20;0.90;;;10.90;99.90;;;;;;5072692;28;20190;-77
2022/12/26 07:57:10;;;;;;;1.20;0.80;;;10.80;99.90;;;;;;5055212;28;20176;-77
2022/12/26 07:59:36;;;;;;;1.30;0.80;;;10.80;99.90;;;;;;5073260;28;20170;-77
2022/12/26 08:02:03;;;;;;;1.67;1.00;;;10.70;99.90;;;;;;5069232;28;20996;-77
2022/12/26 08:04:32;;;;;;;1.47;0.93;;;10.70;99.90;;;;;;5072528;28;20220;-77
2022/12/26 08:06:58;;;;;;;1.83;1.00;;;10.70;99.90;;;;;;5072846;28;20416;-77
2022/12/26 08:09:24;;;;;;;1.10;0.70;;;10.60;99.90;;;;;;5073041;28;20496;-77
2022/12/26 08:11:49;;;;;;;1.30;0.80;;;10.70;99.90;;;;;;5072890;28;20458;-77
2022/12/26 08:14:18;;;;;;;2.33;1.10;;;10.70;99.90;;;;;;5072786;28;20170;-77
2022/12/26 08:16:44;;;;;;;2.77;1.30;;;10.70;99.90;;;;;;5073016;28;20216;-76
2022/12/26 08:19:10;;;;;;;2.03;1.53;;;10.80;99.90;;;;;;5072649;28;20408;-76
2022/12/26 08:21:36;;;;;;;2.50;1.17;;;10.80;99.90;;;;;;5073063;28;20853;-77
2022/12/26 08:24:02;;;;;;;1.20;0.70;;;10.80;99.90;;;;;;5073195;28;20403;-76
2022/12/26 08:26:27;;;;;;;1.53;0.90;;;10.80;99.90;;;;;;5072717;28;20416;-76
2022/12/26 08:28:56;;;;;;;1.33;1.00;;;10.80;99.90;;;;;;5073098;28;20517;-77
2022/12/26 08:31:22;;;;;;;1.30;1.10;;;10.90;99.90;;;;;;5068580;28;20185;-76
2022/12/26 08:33:48;;;;;;;1.70;0.83;;;10.90;99.90;;;;;;5072209;28;20420;-77
2022/12/26 08:36:17;;;;;;;2.10;1.10;;;11.10;99.90;;;;;;5067560;28;20276;-77
2022/12/26 08:38:43;;;;;;;2.90;1.07;;;11.10;99.90;;;;;;5054350;28;20434;-77
2022/12/26 08:41:09;;;;;;;1.50;1.30;;;11.10;99.90;;;;;;5073624;28;20412;-77
2022/12/26 08:43:35;;;;;;;1.20;0.80;;;11.20;99.90;;;;;;5069833;28;20716;-77
2022/12/26 08:46:06;;;;;;;2.70;1.20;;;11.20;99.90;;;;;;5072447;28;20213;-77
2022/12/26 08:48:32;;;;;;;1.30;1.10;;;11.30;99.90;;;;;;5073120;28;20588;-77
2022/12/26 08:51:04;;;;;;;2.13;1.17;;;11.50;99.90;;;;;;5054941;28;20414;-77
2022/12/26 08:53:32;;;;;;;2.30;1.37;;;11.70;99.90;;;;;;5073108;28;20894;-77
2022/12/26 08:55:58;;;;;;;2.27;1.20;;;11.90;99.90;;;;;;5054992;28;20486;-77
2022/12/26 08:58:24;;;;;;;2.73;1.17;;;12.10;99.90;;;;;;5073366;28;20743;-77
2022/12/26 09:00:50;;;;;;;1.90;1.10;;;12.30;99.90;;;;;;5054989;28;20435;-77
2022/12/26 09:03:15;;;;;;;1.50;1.10;;;12.40;99.90;;;;;;5054520;28;20420;-76
2022/12/26 09:05:41;;;;;;;1.20;0.93;;;12.60;99.90;;;;;;5054812;28;20425;-77
2022/12/26 09:08:07;;;;;;;1.67;0.90;;;12.80;99.90;;;;;;5072614;28;20173;-77
2022/12/26 09:10:32;;;;;;;1.47;1.10;;;12.80;99.90;;;;;;5072788;28;20233;-77
2022/12/26 09:12:58;;;;;;;3.13;1.37;;;12.80;99.90;;;;;;5072391;28;20510;-77
2022/12/26 09:15:24;;;;;;;4.30;1.33;;;12.70;99.90;;;;;;5076055;28;20182;-77
2022/12/26 09:17:49;;;;;;;1.40;0.80;;;12.80;99.90;;;;;;5058386;28;20167;-77
2022/12/26 09:20:15;;;;;;;9.07;6.47;;;12.80;99.90;;;;;;5058839;28;20174;-77
2022/12/26 09:22:49;;;;;;;3.40;2.87;;;12.90;99.90;;;;;;5074861;28;20198;-77
2022/12/26 09:25:19;;;;;;;3.40;1.20;;;13.20;99.90;;;;;;5057828;28;20335;-77
2022/12/26 09:27:46;;;;;;;1.60;1.07;;;13.60;99.90;;;;;;5058165;28;20424;-77
2022/12/26 09:30:12;;;;;;;1.93;1.33;;;13.60;99.90;;;;;;5076004;28;20431;-77
2022/12/26 09:32:38;;;;;;;1.80;1.00;;;13.50;99.90;;;;;;5066746;28;20495;-77
2022/12/26 09:35:05;;;;;;;2.60;1.53;;;13.50;99.90;;;;;;5056178;28;20432;-77
2022/12/26 09:37:30;;;;;;;1.93;1.20;;;13.30;99.90;;;;;;5058215;28;20212;-77
2022/12/26 09:39:56;;;;;;;2.17;1.20;;;13.20;99.90;;;;;;5076165;28;20428;-77
2022/12/26 09:42:45;;;;;;;2.23;1.00;;;13.20;99.90;;;;;;5058109;28;20190;-77
2022/12/26 09:45:45;;;;;;;2.23;1.40;;;13.20;99.90;;;;;;5075746;28;20201;-77
2022/12/26 09:48:20;;;;;;;3.33;1.10;;;13.40;99.90;;;;;;5075951;28;20419;-77
2022/12/26 09:50:49;;;;;;;3.33;1.00;;;13.10;99.90;;;;;;5076158;28;20432;-77
2022/12/26 09:53:27;;;;;;;2.07;1.27;;;13.10;99.90;;;;;;5075864;28;20401;-77
2022/12/26 09:55:57;;;;;;;4.23;2.13;;;13.00;99.90;;;;;;5075570;28;20455;-77
2022/12/26 09:58:41;;;;;;;5.40;3.30;;;13.10;99.90;;;;;;5076092;28;20405;-77
2022/12/26 10:01:13;;;;;;;4.50;1.17;;;13.20;99.90;;;;;;5076211;28;20393;-77
2022/12/26 10:03:42;;;;;;;2.60;1.10;;;13.30;99.90;;;;;;5075933;28;20405;-77
2022/12/26 10:06:22;;;;;;;1.83;1.40;;;13.50;99.90;;;;;;5075305;28;20423;-77
2022/12/26 10:09:08;;;;;;;2.17;1.00;;;13.70;99.90;;;;;;5075968;28;20405;-77
2022/12/26 10:11:39;;;;;;;3.40;1.13;;;13.90;99.90;;;;;;5075985;28;20407;-77
2022/12/26 10:14:33;;;;;;;1.87;1.10;;;14.00;99.90;;;;;;5075660;28;20929;-77
2022/12/26 10:17:18;;;;;;;9.37;5.03;;;14.00;99.90;;;;;;5074942;28;20424;-77
2022/12/26 10:20:06;;;;;;;5.70;2.07;;;14.10;99.90;;;;;;5054924;28;20454;-77
2022/12/26 10:23:02;;;;;;;1.83;1.03;;;14.30;99.90;;;;;;5051695;28;20448;-77
2022/12/26 10:25:49;;;;;;;1.77;1.07;;;14.30;99.90;;;;;;5074816;28;20432;-77
2022/12/26 10:28:46;;;;;;;3.33;1.00;;;14.20;99.90;;;;;;5075829;28;20753;-77
2022/12/26 10:31:21;;;;;;;2.07;1.23;;;14.30;99.90;;;;;;5075087;28;20488;-77
2022/12/26 10:34:07;;;;;;;3.43;1.53;;;14.30;99.90;;;;;;5075145;28;20411;-77
2022/12/26 10:36:40;;;;;;;6.70;1.00;;;13.90;99.90;;;;;;5074705;28;20408;-77
2022/12/26 10:39:16;;;;;;;1.60;0.93;;;13.70;99.90;;;;;;5074740;28;20393;-77
2022/12/26 10:41:45;;;;;;;1.40;1.00;;;13.70;99.90;;;;;;5067675;28;20457;-77
2022/12/26 10:44:13;;;;;;;4.57;1.40;;;13.50;99.90;;;;;;5056590;28;20906;-77
2022/12/26 10:46:53;;;;;;;2.70;1.10;;;13.30;99.90;;;;;;5075051;28;20874;-77
2022/12/26 10:49:22;;;;;;;1.63;0.83;;;13.40;99.90;;;;;;5070910;28;20435;-77
2022/12/26 10:51:49;;;;;;;1.83;1.07;;;13.50;99.90;;;;;;5071965;28;20409;-77
2022/12/26 10:54:17;;;;;;;2.00;1.07;;;13.80;99.90;;;;;;5063149;28;20405;-77
2022/12/26 10:56:44;;;;;;;1.40;1.10;;;14.10;99.90;;;;;;5069553;28;20413;-77
2022/12/26 10:59:20;;;;;;;3.50;1.20;;;14.10;99.90;;;;;;5057658;28;21016;-77
2022/12/26 11:01:46;;;;;;;2.27;0.90;;;14.20;99.90;;;;;;5056554;28;20597;-77
2022/12/26 11:04:19;;;;;;;2.73;1.10;;;14.10;99.90;;;;;;5075036;28;20401;-77
2022/12/26 11:06:46;;;;;;;1.80;1.70;;;14.20;99.90;;;;;;5074456;28;20447;-77
2022/12/26 11:09:37;;;;;;;3.30;1.03;;;14.40;99.90;;;;;;5056816;28;20478;-77
2022/12/26 11:12:04;;;;;;;3.30;1.20;;;15.00;99.90;;;;;;5057216;28;20412;-77
2022/12/26 11:14:37;;;;;;;1.60;1.23;;;15.30;99.90;;;;;;5055931;28;20428;-77
2022/12/26 11:17:24;;;;;;;5.73;1.20;;;15.20;99.90;;;;;;5074011;28;20401;-77
2022/12/26 11:20:26;;;;;;;1.37;0.90;;;15.00;99.90;;;;;;5052522;28;20451;-77
2022/12/26 11:22:53;;;;;;;2.23;1.87;;;15.20;99.90;;;;;;5053263;28;21075;-77
2022/12/26 11:25:24;;;;;;;5.70;1.23;;;15.60;99.90;;;;;;5073580;28;20456;-77
2022/12/26 11:27:55;;;;;;;2.07;1.27;;;15.90;99.90;;;;;;5074043;28;20492;-77
2022/12/26 11:30:28;;;;;;;2.10;1.17;;;16.10;99.90;;;;;;5075188;28;20473;-77
2022/12/26 11:33:03;;;;;;;3.53;0.90;;;16.10;99.90;;;;;;5072284;28;20510;-77
2022/12/26 11:35:35;;;;;;;2.40;0.93;;;15.90;99.90;;;;;;5071381;28;20993;-77
2022/12/26 11:38:06;;;;;;;3.87;1.20;;;15.40;99.90;;;;;;5055263;28;20433;-77
2022/12/26 11:41:30;;;;;;;4.23;1.03;;;15.00;99.90;;;;;;5056061;28;20416;-77
2022/12/26 11:43:32;;;;;;;1.63;1.00;;;14.80;99.90;;;;;;5073676;28;20416;-77
2022/12/26 11:45:58;;;;;;;2.63;0.93;;;14.60;99.90;;;;;;5073204;28;20474;-77
2022/12/26 11:48:25;;;;;;;3.30;1.20;;;14.60;99.90;;;;;;5055890;28;20910;-77
2022/12/26 11:50:52;;;;;;;2.50;1.13;;;15.00;99.90;;;;;;5073430;28;20399;-77
2022/12/26 11:53:21;;;;;;;3.40;1.00;;;15.20;99.90;;;;;;5073417;28;20400;-77
2022/12/26 11:56:24;;;;;;;2.33;0.70;;;14.90;99.90;;;;;;5055083;28;20883;-77
2022/12/26 11:59:11;;;;;;;3.67;0.80;;;14.40;99.90;;;;;;5024437;28;20423;-77
2022/12/26 12:01:37;;;;;;;1.27;0.80;;;14.20;99.90;;;;;;5053566;28;20461;-76
2022/12/26 12:04:02;;;;;;;1.37;0.93;;;14.20;99.90;;;;;;5036307;28;20413;-77
2022/12/26 12:06:59;;;;;;;1.70;0.70;;;14.30;99.90;;;;;;5055394;28;20197;-75
2022/12/26 12:09:53;;;;;;;1.50;0.80;;;14.20;99.90;;;;;;5073608;28;20176;-75
2022/12/26 12:12:28;;;;;;;2.50;1.10;;;13.90;99.90;;;;;;5073287;28;20405;-76
2022/12/26 12:15:11;;;;;;;2.53;0.93;;;13.70;99.90;;;;;;5055167;28;20439;-75
2022/12/26 12:18:00;;;;;;;1.83;1.07;;;13.50;99.90;;;;;;5055439;28;20420;-75
2022/12/26 12:20:49;;;;;;;3.77;1.13;;;13.40;99.90;;;;;;5073421;28;20431;-75
2022/12/26 12:23:32;;;;;;;1.10;0.60;;;13.30;99.90;;;;;;5055505;28;20452;-76
2022/12/26 12:26:16;;;;;;;1.20;0.73;;;13.20;99.90;;;;;;5055028;28;20481;-76
2022/12/26 12:29:05;;;;;;;2.17;1.07;;;13.00;99.90;;;;;;5072976;28;20460;-76
2022/12/26 12:31:45;;;;;;;6.83;1.37;;;13.00;99.90;;;;;;5073016;28;20415;-76
2022/12/26 12:34:35;;;;;;;1.80;1.20;;;13.00;99.90;;;;;;5054879;28;20423;-75
2022/12/26 12:37:15;;;;;;;1.40;0.90;;;12.90;99.90;;;;;;5055156;28;20545;-76
2022/12/26 12:39:49;;;;;;;2.40;0.90;;;12.80;99.90;;;;;;5073239;28;20771;-76
2022/12/26 12:42:38;;;;;;;2.13;1.10;;;12.70;99.90;;;;;;5073187;28;20451;-76
2022/12/26 12:45:25;;;;;;;1.50;0.90;;;12.50;99.90;;;;;;5072971;28;20416;-76
2022/12/26 12:48:10;;;;;;;1.10;0.70;;;12.50;99.90;;;;;;5072877;28;20400;-76
2022/12/26 12:51:13;;;;;;;3.10;0.87;;;12.60;99.90;;;;;;5073360;28;20469;-76
2022/12/26 12:53:56;;;;;;;1.60;1.00;;;12.70;99.90;;;;;;5054156;28;20562;-75
2022/12/26 12:56:37;;;;;;;2.00;1.00;;;12.90;99.90;;;;;;5071739;28;20939;-75
2022/12/26 12:59:34;;;;;;;1.60;0.90;;;12.80;99.90;;;;;;5071895;28;20412;-76
2022/12/26 13:02:09;;;;;;;4.13;1.00;;;12.90;99.90;;;;;;5065978;28;20464;-76
2022/12/26 13:04:43;;;;;;;2.87;1.10;;;12.90;99.90;;;;;;5071482;28;20509;-75
2022/12/26 13:07:19;;;;;;;9.50;1.30;;;12.80;99.90;;;;;;5053704;28;20415;-75
2022/12/26 13:09:52;;;;;;;2.13;1.17;;;12.60;99.90;;;;;;5066443;28;20558;-76
2022/12/26 13:12:23;;;;;;;4.50;1.40;;;12.60;99.90;;;;;;5065627;28;20455;-75
2022/12/26 13:14:55;;;;;;;1.37;0.90;;;12.60;99.90;;;;;;5053427;28;20519;-75
2022/12/26 13:17:38;;;;;;;1.33;0.90;;;12.50;99.90;;;;;;5053859;28;20428;-76
2022/12/26 13:20:15;;;;;;;2.60;1.10;;;12.40;99.90;;;;;;5053841;28;20479;-76
2022/12/26 13:25:52;;;;;;;5.73;1.10;;;12.40;99.90;;;;;;5071312;28;20431;-76
2022/12/26 13:28:26;;;;;;;1.37;0.90;;;12.30;99.90;;;;;;5053737;28;20455;-76
2022/12/26 13:30:54;;;;;;;2.83;0.90;;;12.20;99.90;;;;;;5071694;28;20412;-75
2022/12/26 13:33:20;;;;;;;1.60;1.17;;;12.00;99.90;;;;;;5053671;28;20408;-75
2022/12/26 13:35:56;;;;;;;2.17;1.10;;;11.90;99.90;;;;;;5053225;28;20432;-75
2022/12/26 13:38:24;;;;;;;1.43;0.93;;;11.90;99.90;;;;;;5071537;28;20740;-75
2022/12/26 13:44:23;;;;;;;3.10;0.90;;;11.60;99.90;;;;;;5071997;28;20512;-76
2022/12/26 13:46:48;;;;;;;1.70;1.30;;;11.50;99.90;;;;;;5072065;28;20401;-76
2022/12/26 13:49:35;;;;;;;2.17;1.10;;;11.50;99.90;;;;;;5072031;28;20396;-76
2022/12/26 13:52:09;;;;;;;1.60;1.30;;;11.40;99.90;;;;;;5054287;28;20206;-76
2022/12/26 13:54:57;;;;;;;2.00;0.93;;;11.40;99.90;;;;;;5071740;28;20420;-76
2022/12/26 13:57:31;;;;;;;3.33;1.30;;;11.50;99.90;;;;;;5072012;28;20408;-75
2022/12/26 14:00:03;;;;;;;2.97;1.10;;;11.50;99.90;;;;;;5055611;28;20454;-75
2022/12/26 14:02:55;;;;;;;1.60;1.10;;;11.60;99.90;;;;;;5057589;28;20478;-76
2022/12/26 14:05:34;;;;;;;2.77;1.10;;;11.50;99.90;;;;;;5075225;28;20544;-76
2022/12/26 14:08:30;;;;;;;1.83;1.37;;;11.50;99.90;;;;;;5058074;28;20503;-76
2022/12/26 14:10:55;;;;;;;2.40;1.30;;;11.40;99.90;;;;;;5057858;28;20925;-76
2022/12/26 14:13:45;;;;;;;5.20;1.00;;;11.30;99.90;;;;;;5057808;28;20422;-76
2022/12/26 14:16:33;;;;;;;2.63;1.57;;;11.20;99.90;;;;;;5075472;28;20190;-77
2022/12/26 14:19:30;;;;;;;1.40;1.07;;;11.20;99.90;;;;;;5057890;28;20427;-76
2022/12/26 14:22:14;;;;;;;4.03;1.20;;;11.20;99.90;;;;;;5064414;28;20453;-76
2022/12/26 14:24:49;;;;;;;4.40;1.50;;;11.10;99.90;;;;;;5054842;28;20437;-76
2022/12/26 14:27:27;;;;;;;2.13;1.40;;;11.00;99.90;;;;;;5055577;28;20400;-76
2022/12/26 14:30:03;;;;;;;1.73;1.37;;;10.90;99.90;;;;;;5055395;28;20902;-76
2022/12/26 14:32:54;;;;;;;1.50;1.10;;;10.80;99.90;;;;;;5055361;28;20488;-77
2022/12/26 14:35:22;;;;;;;4.03;1.70;;;10.80;99.90;;;;;;5054735;28;20540;-76
2022/12/26 14:38:25;;;;;;;1.80;1.30;;;10.70;99.90;;;;;;5055142;28;20421;-76
2022/12/26 14:41:06;;;;;;;2.17;1.20;;;10.70;99.90;;;;;;5037234;28;20412;-76
2022/12/26 14:43:37;;;;;;;3.87;1.57;;;10.70;99.90;;;;;;5037431;28;20787;-76
2022/12/26 14:46:28;;;;;;;2.07;1.47;;;10.70;99.90;;;;;;5037097;28;20440;-76
2022/12/26 14:49:16;;;;;;;1.63;1.10;;;10.70;99.90;;;;;;5054728;28;20902;-76
2022/12/26 14:51:42;;;;;;;1.90;1.07;;;10.70;99.90;;;;;;5055361;28;20431;-77
2022/12/26 14:54:21;;;;;;;6.43;1.50;;;10.70;99.90;;;;;;5037418;28;20409;-77
2022/12/26 14:56:48;;;;;;;5.87;1.63;;;10.70;99.90;;;;;;5054799;28;20169;-77
2022/12/26 14:59:32;;;;;;;2.50;1.60;;;10.70;99.90;;;;;;5055352;28;20406;-77
2022/12/26 15:02:16;;;;;;;1.77;1.17;;;10.60;99.90;;;;;;5055120;28;20460;-77
2022/12/26 15:04:50;;;;;;;3.40;1.70;;;10.60;99.90;;;;;;5043083;28;20433;-77
2022/12/26 15:07:25;;;;;;;4.43;1.70;;;10.50;99.90;;;;;;5056892;28;20415;-77
2022/12/26 15:10:21;;;;;;;2.23;1.77;;;10.60;99.90;;;;;;5056802;28;20494;-77
2022/12/26 15:13:08;;;;;;;2.67;1.73;;;10.60;99.90;;;;;;5056431;28;20519;-77
2022/12/26 15:16:03;;;;;;;4.07;1.50;;;10.60;99.90;;;;;;5073679;28;20434;-76
2022/12/26 15:19:01;;;;;;;3.77;1.80;;;10.60;99.90;;;;;;5055406;28;20421;-76
2022/12/26 15:21:55;;;;;;;5.00;2.10;;;10.60;99.90;;;;;;5073281;28;20448;-76
2022/12/26 15:24:51;;;;;;;2.50;2.30;;;10.60;99.90;;;;;;5072991;28;20485;-76
2022/12/26 15:27:40;;;;;;;2.70;1.70;;;10.60;99.90;;;;;;5073265;28;20586;-76
2022/12/26 15:30:21;;;;;;;3.40;1.53;;;10.60;99.90;;;;;;5055246;28;20862;-76